createdAt,value
2018-06-25T00:02:21.277Z,51.17
2018-06-25T00:04:51.648Z,50.74
2018-06-25T00:07:21.717Z,51.09
2018-06-25T00:09:52.617Z,52.31
2018-06-25T00:12:22.720Z,51.71
2018-06-25T00:14:52.876Z,52.13
2018-06-25T00:17:23.223Z,52.99
2018-06-25T00:19:53.539Z,53.11
2018-06-25T00:22:23.877Z,53.13
2018-06-25T00:24:53.950Z,53.81
2018-06-25T00:27:24.739Z,53.83
2018-06-25T00:29:55.199Z,53.67
2018-06-25T00:32:25.536Z,53.98
2018-06-25T00:34:55.647Z,53.17
2018-06-25T00:37:25.698Z,53.26
2018-06-25T00:39:55.940Z,53.55
2018-06-25T00:42:26.046Z,53.20
2018-06-25T00:44:56.559Z,54.46
2018-06-25T00:47:26.863Z,54.58
2018-06-25T00:49:57.101Z,55.35
2018-06-25T00:52:26.923Z,56.94
2018-06-25T00:54:57.142Z,57.59
2018-06-25T00:57:27.470Z,58.24
2018-06-25T00:59:57.610Z,58.61
2018-06-25T01:02:27.792Z,58.90
2018-06-25T01:04:58.119Z,59.70
2018-06-25T01:07:28.263Z,59.42
2018-06-25T01:09:58.499Z,59.87
2018-06-25T01:12:28.703Z,59.35
2018-06-25T01:14:59.254Z,60.44
2018-06-25T01:17:29.344Z,60.62
2018-06-25T01:19:59.494Z,60.13
2018-06-25T01:22:29.749Z,61.07
2018-06-25T01:25:00.702Z,60.88
2018-06-25T01:27:31.115Z,61.12
2018-06-25T01:30:01.974Z,61.22
2018-06-25T01:32:32.468Z,61.57
2018-06-25T01:35:02.661Z,61.10
2018-06-25T01:37:32.929Z,61.58
2018-06-25T01:40:03.734Z,61.51
2018-06-25T01:42:34.692Z,62.08
2018-06-25T01:45:05.335Z,62.53
2018-06-25T01:47:35.649Z,61.76
2018-06-25T01:50:06.021Z,62.09
2018-06-25T01:52:36.244Z,62.73
2018-06-25T01:55:06.671Z,62.22
2018-06-25T01:57:37.125Z,62.41
2018-06-25T02:00:08.160Z,63.18
2018-06-25T02:02:38.389Z,63.14
2018-06-25T02:05:08.710Z,63.24
2018-06-25T02:07:39.196Z,62.90
2018-06-25T02:10:09.783Z,62.98
2018-06-25T02:12:40.071Z,62.89
2018-06-25T02:15:10.307Z,63.41
2018-06-25T02:17:40.249Z,63.01
2018-06-25T02:20:10.418Z,62.67
2018-06-25T02:22:40.619Z,63.41
2018-06-25T02:25:11.092Z,63.23
2018-06-25T02:27:41.613Z,63.06
2018-06-25T02:30:11.721Z,64.23
2018-06-25T02:32:41.844Z,64.49
2018-06-25T02:35:12.102Z,64.17
2018-06-25T02:37:42.195Z,63.79
2018-06-25T02:40:12.435Z,63.45
2018-06-25T02:42:43.192Z,63.21
2018-06-25T02:45:13.492Z,62.87
2018-06-25T02:47:44.249Z,63.16
2018-06-25T02:50:14.521Z,62.99
2018-06-25T02:52:44.661Z,63.58
2018-06-25T02:55:14.762Z,63.25
2018-06-25T02:57:44.947Z,63.28
2018-06-25T03:00:15.116Z,64.10
2018-06-25T03:02:45.221Z,63.98
2018-06-25T03:05:15.584Z,63.80
2018-06-25T03:07:46.057Z,63.83
2018-06-25T03:10:16.193Z,63.96
2018-06-25T03:12:46.323Z,63.80
2018-06-25T03:15:16.268Z,63.42
2018-06-25T03:17:46.259Z,64.42
2018-06-25T03:20:16.732Z,63.80
2018-06-25T03:22:46.900Z,64.18
2018-06-25T03:25:18.154Z,64.02
2018-06-25T03:27:48.790Z,64.30
2018-06-25T03:30:18.898Z,65.03
2018-06-25T03:32:50.449Z,64.73
2018-06-25T03:35:20.552Z,65.05
2018-06-25T03:37:50.846Z,65.10
2018-06-25T03:40:20.962Z,64.55
2018-06-25T03:42:51.373Z,64.84
2018-06-25T03:45:21.487Z,65.48
2018-06-25T03:47:51.667Z,65.01
2018-06-25T03:50:21.809Z,65.42
2018-06-25T03:52:52.438Z,64.84
2018-06-25T03:55:23.245Z,63.95
2018-06-25T03:57:53.633Z,63.74
2018-06-25T04:00:23.788Z,63.53
2018-06-25T04:02:54.068Z,63.84
2018-06-25T04:05:24.286Z,63.45
2018-06-25T04:07:54.295Z,63.50
2018-06-25T04:10:24.450Z,63.63
2018-06-25T04:12:54.767Z,63.42
2018-06-25T04:15:24.851Z,62.83
2018-06-25T04:17:55.187Z,62.53
2018-06-25T04:20:25.975Z,62.95
2018-06-25T04:22:56.171Z,63.03
2018-06-25T04:25:26.383Z,62.74
2018-06-25T04:27:56.521Z,63.13
2018-06-25T04:30:26.627Z,62.54
2018-06-25T04:32:57.039Z,62.07
2018-06-25T04:35:27.194Z,62.79
2018-06-25T04:37:57.571Z,62.87
2018-06-25T04:40:27.714Z,62.17
2018-06-25T04:42:57.778Z,62.56
2018-06-25T04:45:28.019Z,62.75
2018-06-25T04:47:58.203Z,62.33
2018-06-25T04:50:28.368Z,62.90
2018-06-25T04:52:58.832Z,62.99
2018-06-25T04:55:29.834Z,62.38
2018-06-25T04:58:00.085Z,62.64
2018-06-25T05:00:30.304Z,62.20
2018-06-25T05:03:00.850Z,62.88
2018-06-25T05:05:30.952Z,63.57
2018-06-25T05:08:01.249Z,62.78
2018-06-25T05:10:31.979Z,63.55
2018-06-25T05:13:02.214Z,63.92
2018-06-25T05:15:32.535Z,63.19
2018-06-25T05:18:02.683Z,63.89
2018-06-25T05:20:32.872Z,64.15
2018-06-25T05:23:03.140Z,64.51
2018-06-25T05:25:34.650Z,64.52
2018-06-25T05:28:04.957Z,64.29
2018-06-25T05:30:35.754Z,64.51
2018-06-25T05:33:06.543Z,64.61
2018-06-25T05:35:36.818Z,64.64
2018-06-25T05:38:07.145Z,64.69
2018-06-25T05:40:37.515Z,64.57
2018-06-25T05:43:07.726Z,65.29
2018-06-25T05:45:37.840Z,64.54
2018-06-25T05:48:07.917Z,64.42
2018-06-25T05:50:38.048Z,65.14
2018-06-25T05:53:08.256Z,65.16
2018-06-25T05:55:38.459Z,64.36
2018-06-25T05:58:08.686Z,64.55
2018-06-25T06:00:38.941Z,64.72
2018-06-25T06:03:09.172Z,64.92
2018-06-25T06:05:39.912Z,64.80
2018-06-25T06:08:10.523Z,64.53
2018-06-25T06:10:40.825Z,63.90
2018-06-25T06:13:11.079Z,64.16
2018-06-25T06:15:41.662Z,64.03
2018-06-25T06:18:12.514Z,64.10
2018-06-25T06:20:42.815Z,64.08
2018-06-25T06:23:13.215Z,64.00
2018-06-25T06:25:43.427Z,64.08
2018-06-25T06:28:13.579Z,64.94
2018-06-25T06:30:43.640Z,64.60
2018-06-25T06:33:14.136Z,64.73
2018-06-25T06:35:44.417Z,63.94
2018-06-25T06:38:14.798Z,64.59
2018-06-25T06:40:45.138Z,64.55
2018-06-25T06:43:15.041Z,65.28
2018-06-25T06:45:45.386Z,65.18
2018-06-25T06:48:15.690Z,64.97
2018-06-25T06:50:45.855Z,65.20
2018-06-25T06:53:16.061Z,65.37
2018-06-25T06:55:46.167Z,65.25
2018-06-25T06:58:16.284Z,65.62
2018-06-25T07:00:46.505Z,65.43
2018-06-25T07:03:17.417Z,65.99
2018-06-25T07:05:47.698Z,66.06
2018-06-25T07:08:17.962Z,65.69
2018-06-25T07:10:48.199Z,65.70
2018-06-25T07:13:19.293Z,65.45
2018-06-25T07:15:49.553Z,65.54
2018-06-25T07:18:19.694Z,65.16
2018-06-25T07:20:50.121Z,64.92
2018-06-25T07:23:20.662Z,64.49
2018-06-25T07:25:50.785Z,65.02
2018-06-25T07:28:20.781Z,65.15
2018-06-25T07:30:50.988Z,64.46
2018-06-25T07:33:21.818Z,64.75
2018-06-25T07:35:52.173Z,64.29
2018-06-25T07:38:22.231Z,65.03
2018-06-25T07:40:52.473Z,64.52
2018-06-25T07:43:22.644Z,63.90
2018-06-25T07:45:52.808Z,64.52
2018-06-25T07:48:22.931Z,63.79
2018-06-25T07:50:53.514Z,63.10
2018-06-25T07:53:23.571Z,63.69
2018-06-25T07:55:54.551Z,63.00
2018-06-25T07:58:24.845Z,62.32
2018-06-25T08:00:55.178Z,62.06
2018-06-25T08:03:25.342Z,61.33
2018-06-25T08:05:55.549Z,61.99
2018-06-25T08:08:26.023Z,61.31
2018-06-25T08:10:56.232Z,61.28
2018-06-25T08:13:26.437Z,61.78
2018-06-25T08:15:57.227Z,61.74
2018-06-25T08:18:27.218Z,60.77
2018-06-25T08:20:57.200Z,59.98
2018-06-25T08:23:27.418Z,60.45
2018-06-25T08:25:57.618Z,60.16
2018-06-25T08:28:27.973Z,60.79
2018-06-25T08:30:58.634Z,60.00
2018-06-25T08:33:29.751Z,59.89
2018-06-25T08:35:59.939Z,60.34
2018-06-25T08:38:30.544Z,60.48
2018-06-25T08:41:00.772Z,60.41
2018-06-25T08:43:30.979Z,59.91
2018-06-25T08:46:01.646Z,59.95
2018-06-25T08:48:31.823Z,59.80
2018-06-25T08:51:01.957Z,60.06
2018-06-25T08:53:32.081Z,59.22
2018-06-25T08:56:02.274Z,59.68
2018-06-25T08:58:32.522Z,59.54
2018-06-25T09:01:02.722Z,59.04
2018-06-25T09:03:33.273Z,58.54
2018-06-25T09:06:03.540Z,58.87
2018-06-25T09:08:33.670Z,58.20
2018-06-25T09:11:03.806Z,58.63
2018-06-25T09:13:33.871Z,58.07
2018-06-25T09:16:04.108Z,59.08
2018-06-25T09:18:34.362Z,57.92
2018-06-25T09:21:05.299Z,57.58
2018-06-25T09:23:35.300Z,57.07
2018-06-25T09:26:05.549Z,57.09
2018-06-25T09:28:37.035Z,57.19
2018-06-25T09:31:07.427Z,56.86
2018-06-25T09:33:37.599Z,56.85
2018-06-25T09:36:07.722Z,57.01
2018-06-25T09:38:37.983Z,56.57
2018-06-25T09:41:08.515Z,56.43
2018-06-25T09:43:38.860Z,56.15
2018-06-25T09:46:09.294Z,56.08
2018-06-25T09:48:39.499Z,55.71
2018-06-25T09:51:09.585Z,55.74
2018-06-25T09:53:39.732Z,55.56
2018-06-25T09:56:10.022Z,55.65
2018-06-25T09:58:40.226Z,55.56
2018-06-25T10:01:10.870Z,55.17
2018-06-25T10:03:42.263Z,54.92
2018-06-25T10:06:12.453Z,54.81
2018-06-25T10:08:42.742Z,55.09
2018-06-25T10:11:13.150Z,55.33
2018-06-25T10:13:45.088Z,55.37
2018-06-25T10:16:15.186Z,55.16
2018-06-25T10:18:45.824Z,55.64
2018-06-25T10:21:15.973Z,55.08
2018-06-25T10:23:46.309Z,55.53
2018-06-25T10:26:16.531Z,55.48
2018-06-25T10:28:46.719Z,54.85
2018-06-25T10:31:16.977Z,54.86
2018-06-25T10:33:46.989Z,55.10
2018-06-25T10:36:17.509Z,55.16
2018-06-25T10:38:47.736Z,55.44
2018-06-25T10:41:18.021Z,55.42
2018-06-25T10:43:48.738Z,55.41
2018-06-25T10:46:18.923Z,55.45
2018-06-25T10:48:49.515Z,55.42
2018-06-25T10:51:20.332Z,55.50
2018-06-25T10:53:50.494Z,55.11
2018-06-25T10:56:20.745Z,54.79
2018-06-25T10:58:50.971Z,54.48
2018-06-25T11:01:21.089Z,54.49
2018-06-25T11:03:51.288Z,54.53
2018-06-25T11:06:21.501Z,54.63
2018-06-25T11:08:51.942Z,54.29
2018-06-25T11:11:22.481Z,53.85
2018-06-25T11:13:52.676Z,54.16
2018-06-25T11:16:22.914Z,54.20
2018-06-25T11:18:53.463Z,54.00
2018-06-25T11:21:24.585Z,54.10
2018-06-25T11:23:55.061Z,53.64
2018-06-25T11:26:25.923Z,53.61
2018-06-25T11:28:56.214Z,53.72
2018-06-25T11:31:26.436Z,53.60
2018-06-25T11:33:56.624Z,53.58
2018-06-25T11:36:26.926Z,53.60
2018-06-25T11:38:57.132Z,53.98
2018-06-25T11:41:33.976Z,53.93
2018-06-25T11:44:04.381Z,54.02
2018-06-25T11:46:34.646Z,53.92
2018-06-25T11:49:05.708Z,54.10
2018-06-25T11:51:35.960Z,53.86
2018-06-25T11:54:06.258Z,54.33
2018-06-25T11:56:37.178Z,54.48
2018-06-25T11:59:07.351Z,54.56
2018-06-25T12:01:37.837Z,54.41
2018-06-25T12:04:08.240Z,54.32
2018-06-25T12:06:38.679Z,53.84
2018-06-25T12:09:10.138Z,53.39
2018-06-25T12:11:40.656Z,53.23
2018-06-25T12:14:11.005Z,53.18
2018-06-25T12:16:41.234Z,53.22
2018-06-25T12:19:11.390Z,52.71
2018-06-25T12:21:41.642Z,52.22
2018-06-25T12:24:11.536Z,51.78
2018-06-25T12:26:41.398Z,51.71
2018-06-25T12:29:11.740Z,52.05
2018-06-25T12:31:41.921Z,51.38
2018-06-25T12:34:12.032Z,50.86
2018-06-25T12:36:42.581Z,50.62
2018-06-25T12:39:12.799Z,50.73
2018-06-25T12:41:43.058Z,50.90
2018-06-25T12:44:13.310Z,50.79
2018-06-25T12:46:43.409Z,50.63
2018-06-25T12:49:13.518Z,50.89
2018-06-25T12:51:43.690Z,50.82
2018-06-25T12:54:13.912Z,50.51
2018-06-25T12:56:44.004Z,50.50
2018-06-25T12:59:14.251Z,50.04
2018-06-25T13:01:44.574Z,49.96
2018-06-25T13:04:17.425Z,49.32
2018-06-25T13:06:48.081Z,49.23
2018-06-25T13:09:18.643Z,49.52
2018-06-25T13:11:48.939Z,49.19
2018-06-25T13:14:19.524Z,49.11
2018-06-25T13:16:50.443Z,49.25
2018-06-25T13:19:21.019Z,49.37
2018-06-25T13:21:51.268Z,49.30
2018-06-25T13:24:22.356Z,49.23
2018-06-25T13:26:52.715Z,49.35
2018-06-25T13:29:23.169Z,49.10
2018-06-25T13:31:54.380Z,49.27
2018-06-25T13:34:24.766Z,49.40
2018-06-25T13:36:55.816Z,49.03
2018-06-25T13:39:26.279Z,49.47
2018-06-25T13:41:56.610Z,48.79
2018-06-25T13:44:26.746Z,48.96
2018-06-25T13:46:57.173Z,49.15
2018-06-25T13:49:27.776Z,49.22
2018-06-25T13:51:57.960Z,48.53
2018-06-25T13:54:28.222Z,48.70
2018-06-25T13:56:58.388Z,48.60
2018-06-25T13:59:28.454Z,47.65
2018-06-25T14:01:58.642Z,48.15
2018-06-25T14:04:29.001Z,48.21
2018-06-25T14:06:59.392Z,47.52
2018-06-25T14:09:29.560Z,46.69
2018-06-25T14:12:00.727Z,45.97
2018-06-25T14:14:30.904Z,44.94
2018-06-25T14:17:01.214Z,44.92
2018-06-25T14:19:31.455Z,44.83
2018-06-25T14:22:02.076Z,44.55
2018-06-25T14:24:37.827Z,44.12
2018-06-25T14:27:11.842Z,42.68
2018-06-25T14:29:42.107Z,42.30
2018-06-25T14:32:17.372Z,41.84
2018-06-25T14:34:52.901Z,41.15
2018-06-25T14:37:22.951Z,39.86
2018-06-25T14:39:53.572Z,38.93
2018-06-25T14:42:24.149Z,38.45
2018-06-25T14:44:54.752Z,38.67
2018-06-25T14:47:26.871Z,38.29
2018-06-25T14:49:57.173Z,38.14
2018-06-25T14:52:28.081Z,38.71
2018-06-25T14:54:58.478Z,38.84
2018-06-25T14:57:28.454Z,39.29
2018-06-25T14:59:58.807Z,39.25
2018-06-25T15:02:29.390Z,39.19
2018-06-25T15:04:59.875Z,39.87
2018-06-25T15:07:30.052Z,41.94
2018-06-25T15:10:00.376Z,42.24
2018-06-25T15:12:30.495Z,42.23
2018-06-25T15:15:00.904Z,43.06
2018-06-25T15:17:31.171Z,42.40
2018-06-25T15:20:01.157Z,42.38
2018-06-25T15:22:31.447Z,43.30
2018-06-25T15:25:01.636Z,43.22
2018-06-25T15:27:31.683Z,42.77
2018-06-25T15:30:01.582Z,43.17
2018-06-25T15:32:32.762Z,42.76
2018-06-25T15:35:03.095Z,43.04
2018-06-25T15:37:33.228Z,43.28
2018-06-25T15:40:03.468Z,42.66
2018-06-25T15:42:33.396Z,43.30
2018-06-25T15:45:04.130Z,43.35
2018-06-25T15:47:34.245Z,42.37
2018-06-25T15:50:04.919Z,42.54
2018-06-25T15:52:34.959Z,42.71
2018-06-25T15:55:05.871Z,42.66
2018-06-25T15:57:36.018Z,42.29
2018-06-25T16:00:06.224Z,41.84
2018-06-25T16:02:36.636Z,41.90
2018-06-25T16:05:06.847Z,41.96
2018-06-25T16:07:37.207Z,42.26
2018-06-25T16:10:07.056Z,42.20
2018-06-25T16:12:37.302Z,41.62
2018-06-25T16:15:07.544Z,42.22
2018-06-25T16:17:37.548Z,42.09
2018-06-25T16:20:07.572Z,43.15
2018-06-25T16:22:37.594Z,43.48
2018-06-25T16:25:08.105Z,43.92
2018-06-25T16:27:38.369Z,43.78
2018-06-25T16:30:08.917Z,42.98
2018-06-25T16:32:39.082Z,43.76
2018-06-25T16:35:09.152Z,42.79
2018-06-25T16:37:40.307Z,42.85
2018-06-25T16:40:10.701Z,43.06
2018-06-25T16:42:40.787Z,42.46
2018-06-25T16:45:11.483Z,42.29
2018-06-25T16:47:42.222Z,42.39
2018-06-25T16:50:12.598Z,42.73
2018-06-25T16:52:42.653Z,41.97
2018-06-25T16:55:12.741Z,42.16
2018-06-25T16:57:43.121Z,42.10
2018-06-25T17:00:13.405Z,42.87
2018-06-25T17:02:43.385Z,44.17
2018-06-25T17:05:13.467Z,44.20
2018-06-25T17:07:43.573Z,44.96
2018-06-25T17:10:13.792Z,45.74
2018-06-25T17:12:43.967Z,46.29
2018-06-25T17:15:13.960Z,45.98
2018-06-25T17:17:44.568Z,46.61
2018-06-25T17:20:15.365Z,46.56
2018-06-25T17:22:45.673Z,46.82
2018-06-25T17:25:15.883Z,46.82
2018-06-25T17:27:46.349Z,47.76
2018-06-25T17:30:17.247Z,47.38
2018-06-25T17:32:47.721Z,48.53
2018-06-25T17:35:18.399Z,48.46
2018-06-25T17:37:48.675Z,48.29
2018-06-25T17:40:20.265Z,48.38
2018-06-25T17:42:50.601Z,48.41
2018-06-25T17:45:20.800Z,49.15
2018-06-25T17:47:51.538Z,49.65
2018-06-25T17:50:22.010Z,49.22
2018-06-25T17:52:52.222Z,49.92
2018-06-25T17:55:23.208Z,49.62
2018-06-25T17:57:53.586Z,49.70
2018-06-25T18:00:23.653Z,49.80
2018-06-25T18:02:53.884Z,50.27
2018-06-25T18:05:24.214Z,50.24
2018-06-25T18:07:54.386Z,50.81
2018-06-25T18:10:25.293Z,50.85
2018-06-25T18:12:55.514Z,51.19
2018-06-25T18:15:25.945Z,51.22
2018-06-25T18:17:56.099Z,51.89
2018-06-25T18:20:26.448Z,51.94
2018-06-25T18:22:56.516Z,52.57
2018-06-25T18:25:26.937Z,52.31
2018-06-25T18:27:57.158Z,52.10
2018-06-25T18:30:27.404Z,52.39
2018-06-25T18:32:57.776Z,52.77
2018-06-25T18:35:28.394Z,52.47
2018-06-25T18:37:58.385Z,52.38
2018-06-25T18:40:28.707Z,52.92
2018-06-25T18:42:58.935Z,52.88
2018-06-25T18:45:29.190Z,52.93
2018-06-25T18:47:59.285Z,53.19
2018-06-25T18:50:30.073Z,53.35
2018-06-25T18:53:00.605Z,53.40
2018-06-25T18:55:31.034Z,53.29
2018-06-25T18:58:01.360Z,53.50
2018-06-25T19:00:31.884Z,53.48
2018-06-25T19:03:02.703Z,53.67
2018-06-25T19:05:32.897Z,53.73
2018-06-25T19:08:03.566Z,54.05
2018-06-25T19:10:33.971Z,53.67
2018-06-25T19:13:04.284Z,53.63
2018-06-25T19:15:34.418Z,53.79
2018-06-25T19:18:04.811Z,53.61
2018-06-25T19:20:35.197Z,53.52
2018-06-25T19:23:06.295Z,53.44
2018-06-25T19:25:36.507Z,53.72
2018-06-25T19:28:06.708Z,53.72
2018-06-25T19:30:37.070Z,53.65
2018-06-25T19:33:07.443Z,53.51
2018-06-25T19:35:37.576Z,53.62
2018-06-25T19:38:08.788Z,53.68
2018-06-25T19:40:39.161Z,53.73
2018-06-25T19:43:09.544Z,53.61
2018-06-25T19:45:40.408Z,53.75
2018-06-25T19:48:10.764Z,53.74
2018-06-25T19:50:41.130Z,53.53
2018-06-25T19:53:11.436Z,53.77
2018-06-25T19:55:41.733Z,53.69
2018-06-25T19:58:11.750Z,53.88
2018-06-25T20:00:42.459Z,53.53
2018-06-25T20:03:12.983Z,53.81
2018-06-25T20:05:43.008Z,53.75
2018-06-25T20:08:13.459Z,53.48
2018-06-25T20:10:43.895Z,53.61
2018-06-25T20:13:13.902Z,53.60
2018-06-25T20:15:44.089Z,53.92
2018-06-25T20:18:14.586Z,53.98
2018-06-25T20:20:44.927Z,53.83
2018-06-25T20:23:15.560Z,54.14
2018-06-25T20:25:46.282Z,54.19
2018-06-25T20:28:17.165Z,53.91
2018-06-25T20:30:47.957Z,54.23
2018-06-25T20:33:18.249Z,54.25
2018-06-25T20:35:48.450Z,54.34
2018-06-25T20:38:18.907Z,54.40
2018-06-25T20:40:49.043Z,54.49
2018-06-25T20:43:19.356Z,54.46
2018-06-25T20:45:50.438Z,54.48
2018-06-25T20:48:20.484Z,54.83
2018-06-25T20:50:50.604Z,54.82
2018-06-25T20:53:20.714Z,54.75
2018-06-25T20:55:51.004Z,54.82
2018-06-25T20:58:21.234Z,55.02
2018-06-25T21:00:51.545Z,55.10
2018-06-25T21:03:21.757Z,55.31
2018-06-25T21:05:52.254Z,55.47
2018-06-25T21:08:22.881Z,55.48
2018-06-25T21:10:53.378Z,55.54
2018-06-25T21:13:23.675Z,55.75
2018-06-25T21:15:53.946Z,55.85
2018-06-25T21:18:24.947Z,55.83
2018-06-25T21:20:54.990Z,55.94
2018-06-25T21:23:25.248Z,56.27
2018-06-25T21:25:55.559Z,56.38
2018-06-25T21:28:25.737Z,56.15
2018-06-25T21:30:55.980Z,56.25
2018-06-25T21:33:26.146Z,56.29
2018-06-25T21:35:57.388Z,56.58
2018-06-25T21:38:27.754Z,56.78
2018-06-25T21:40:57.927Z,56.54
2018-06-25T21:43:28.609Z,56.63
2018-06-25T21:45:58.870Z,56.95
2018-06-25T21:48:29.009Z,56.99
2018-06-25T21:50:59.108Z,57.04
2018-06-25T21:53:29.442Z,57.36
2018-06-25T21:56:02.577Z,57.22
2018-06-25T21:58:32.827Z,57.50
2018-06-25T22:01:04.418Z,57.25
2018-06-25T22:03:34.382Z,58.00
2018-06-25T22:06:05.255Z,57.86
2018-06-25T22:08:35.485Z,57.98
2018-06-25T22:11:05.607Z,58.21
2018-06-25T22:13:35.689Z,58.28
2018-06-25T22:16:06.136Z,57.95
2018-06-25T22:18:36.842Z,58.19
2018-06-25T22:21:07.205Z,58.21
2018-06-25T22:23:37.266Z,58.13
2018-06-25T22:26:07.565Z,58.45
2018-06-25T22:28:37.880Z,58.35
2018-06-25T22:31:08.091Z,58.48
2018-06-25T22:33:38.372Z,58.55
2018-06-25T22:36:08.825Z,58.65
2018-06-25T22:38:39.453Z,58.75
2018-06-25T22:41:09.878Z,58.89
2018-06-25T22:43:40.166Z,59.07
2018-06-25T22:46:10.098Z,59.22
2018-06-25T22:48:40.130Z,59.39
2018-06-25T22:51:10.288Z,59.57
2018-06-25T22:53:40.297Z,59.39
2018-06-25T22:56:10.519Z,59.50
2018-06-25T22:58:40.792Z,59.65
2018-06-25T23:01:11.105Z,59.59
2018-06-25T23:03:41.368Z,59.68
2018-06-25T23:06:11.678Z,59.78
2018-06-25T23:08:41.839Z,59.64
2018-06-25T23:11:12.438Z,60.14
2018-06-25T23:13:42.472Z,60.25
2018-06-25T23:16:12.713Z,60.59
2018-06-25T23:18:44.827Z,60.75
2018-06-25T23:21:15.239Z,61.10
2018-06-25T23:23:45.514Z,61.42
2018-06-25T23:26:15.702Z,61.73
2018-06-25T23:28:45.805Z,61.74
2018-06-25T23:31:16.112Z,62.22
2018-06-25T23:33:46.350Z,62.11
2018-06-25T23:36:16.551Z,62.25
2018-06-25T23:38:53.227Z,62.53
2018-06-25T23:41:23.986Z,62.45
2018-06-25T23:43:54.165Z,63.42
2018-06-25T23:46:24.506Z,63.14
2018-06-25T23:48:54.733Z,62.59
2018-06-25T23:51:24.839Z,62.51
2018-06-25T23:53:55.076Z,63.18
2018-06-25T23:56:25.204Z,62.91
2018-06-25T23:58:55.563Z,63.41
